Time;durP1;ratioP1;P1;durP2;ratioP2;P2;SDS_P1;SDS_P2;PMS_P1;PMS_P2;Temp;Humidity;BMP_temperature;BMP_pressure;BME280_temperature;BME280_humidity;BME280_pressure;Samples;Min_cycle;Max_cycle;Signal;HPM_P1;HPM_P2
2023/01/14 00:02:21;;;;;;;12.77;11.40;;;;;;;4.45;100.00;1642.69;5071037;28;20211;-58
2023/01/14 00:04:48;;;;;;;11.67;10.67;;;;;;;4.46;100.00;693.28;5071001;28;20196;-59
2023/01/14 00:07:16;;;;;;;12.93;11.20;;;;;;;4.28;100.00;692.19;5074139;28;20531;-59
2023/01/14 00:09:44;;;;;;;11.27;10.20;;;;;;;4.24;100.00;375.63;5075080;28;20548;-61
2023/01/14 00:12:11;;;;;;;11.97;10.93;;;;;;;4.21;100.00;375.47;5074815;28;20201;-60
2023/01/14 00:14:38;;;;;;;12.60;11.33;;;;;;;4.27;100.00;-256.75;5074428;28;20259;-59
2023/01/14 00:17:05;;;;;;;11.60;10.57;;;;;;;4.36;100.00;-572.66;5074637;28;20551;-61
2023/01/14 00:19:32;;;;;;;12.27;11.00;;;;;;;4.37;100.00;-572.63;5074575;28;20671;-59
2023/01/14 00:21:58;;;;;;;11.23;10.33;;;;;;;4.52;100.00;60.78;5074619;28;20192;-58
2023/01/14 00:24:26;;;;;;;12.20;10.97;;;;;;;4.58;100.00;1010.56;5074328;28;20189;-59
2023/01/14 00:26:56;;;;;;;12.70;11.43;;;;;;;4.53;100.00;2593.19;5074513;28;20207;-58
2023/01/14 00:29:26;;;;;;;11.90;10.87;;;;;;;4.53;100.00;3860.16;5074534;28;20181;-59
2023/01/14 00:31:55;;;;;;;10.63;9.57;;;;;;;4.32;100.00;4491.13;5074546;28;20642;-59
2023/01/14 00:34:22;;;;;;;10.47;9.57;;;;;;;4.27;100.00;4490.53;5074107;28;20587;-60
2023/01/14 00:36:49;;;;;;;10.93;9.93;;;;;;;4.27;100.00;3857.22;5074193;28;20203;-59
2023/01/14 00:39:16;;;;;;;11.27;10.27;;;;;;;4.09;100.00;3538.69;5074126;28;20207;-59
2023/01/14 00:41:43;;;;;;;10.20;9.43;;;;;;;4.21;100.00;3856.47;5073945;28;20228;-60
2023/01/14 00:44:12;;;;;;;10.40;9.60;;;;;;;4.37;100.00;3858.28;5073873;28;20192;-61
2023/01/14 00:46:40;;;;;;;10.20;9.30;;;;;;;4.43;100.00;3542.25;5073836;28;20189;-59
2023/01/14 00:49:11;;;;;;;11.43;9.90;;;;;;;4.49;100.00;3226.16;5073850;28;20184;-58
2023/01/14 00:51:38;;;;;;;9.93;9.10;;;;;;;4.52;100.00;3543.22;5073703;28;20195;-59
2023/01/14 00:54:05;;;;;;;9.53;8.87;;;;;;;4.53;100.00;5444.50;5074054;28;20558;-59
2023/01/14 00:56:32;;;;;;;8.80;8.20;;;;;;;4.56;100.00;6078.81;5073708;28;20185;-58
2023/01/14 00:58:59;;;;;;;10.53;9.73;;;;;;;4.62;100.00;6713.88;5073672;28;20191;-59
2023/01/14 01:01:27;;;;;;;8.87;8.20;;;;;;;4.69;100.00;7032.16;5072527;28;20615;-59
2023/01/14 01:03:56;;;;;;;10.70;9.73;;;;;;;4.67;100.00;7983.38;5073640;28;20666;-60
2023/01/14 01:06:27;;;;;;;9.83;9.03;;;;;;;4.52;100.00;8615.28;5073799;28;20565;-59
2023/01/14 01:08:58;;;;;;;10.47;9.67;;;;;;;4.55;100.00;7981.38;5073715;28;20192;-58
2023/01/14 01:11:25;;;;;;;11.33;10.23;;;;;;;4.64;100.00;7348.50;5073468;28;20276;-59
2023/01/14 01:13:52;;;;;;;11.10;10.03;;;;;;;4.58;100.00;8299.06;5073706;28;20216;-59
2023/01/14 01:16:23;;;;;;;11.03;10.03;;;;;;;4.52;100.00;7346.53;5073554;28;20628;-59
2023/01/14 01:18:52;;;;;;;9.90;9.13;;;;;;;4.59;100.00;5128.31;5073341;28;20275;-59
2023/01/14 01:21:21;;;;;;;9.77;9.07;;;;;;;4.56;100.00;4494.16;5073157;28;20208;-61
2023/01/14 01:23:48;;;;;;;11.90;10.73;;;;;;;4.69;100.00;5763.69;5073577;28;20211;-58
2023/01/14 01:26:17;;;;;;;11.43;10.23;;;;;;;4.69;100.00;7032.06;5073114;28;20185;-58
2023/01/14 01:28:48;;;;;;;11.63;10.50;;;;;;;4.66;100.00;6397.31;5073457;28;20543;-59
2023/01/14 01:31:15;;;;;;;12.33;11.00;;;;;;;4.66;100.00;5446.22;5073362;28;20219;-59
2023/01/14 01:33:43;;;;;;;11.07;10.07;;;;;;;4.65;100.00;4812.16;5073208;28;20238;-59
2023/01/14 01:36:14;;;;;;;13.00;11.70;;;;;;;4.65;100.00;4178.31;5072919;28;20185;-60
2023/01/14 01:38:41;;;;;;;11.80;10.70;;;;;;;4.49;100.00;4176.44;5073176;28;20560;-58
2023/01/14 01:41:08;;;;;;;11.53;10.33;;;;;;;4.67;100.00;2911.22;5072715;28;20209;-59
2023/01/14 01:43:35;;;;;;;11.77;10.67;;;;;;;4.72;100.00;3228.47;5072779;28;20203;-59
2023/01/14 01:46:01;;;;;;;11.17;10.17;;;;;;;4.57;100.00;3860.53;5072752;28;20185;-58
2023/01/14 01:48:32;;;;;;;10.97;10.07;;;;;;;4.62;100.00;3544.28;5072646;28;20185;-59
2023/01/14 01:51:04;;;;;;;11.80;10.60;;;;;;;4.51;100.00;4176.66;5073207;28;20651;-60
2023/01/14 01:53:34;;;;;;;10.37;9.43;;;;;;;4.47;100.00;4176.19;5072496;28;20184;-59
2023/01/14 01:56:03;;;;;;;11.67;10.33;;;;;;;4.37;100.00;3224.97;5072532;28;20185;-59
2023/01/14 01:58:32;;;;;;;11.57;10.13;;;;;;;4.53;100.00;2909.88;5072762;28;20188;-59
2023/01/14 02:01:00;;;;;;;10.23;9.37;;;;;;;4.49;100.00;2592.84;5072291;28;20209;-59
2023/01/14 02:03:33;;;;;;;11.07;10.00;;;;;;;4.71;100.00;2594.84;5072351;28;20207;-59
2023/01/14 02:06:01;;;;;;;11.37;10.20;;;;;;;4.83;100.00;2595.94;5072485;28;20192;-59
2023/01/14 02:08:28;;;;;;;10.67;9.63;;;;;;;4.62;100.00;4494.84;5072535;28;20683;-59
2023/01/14 02:11:31;;;;;;;10.40;9.50;;;;;;;4.72;100.00;3862.25;5072520;28;20265;-58
2023/01/14 02:14:06;;;;;;;10.27;9.37;;;;;;;4.62;100.00;4177.97;5072474;28;20600;-59
2023/01/14 02:16:46;;;;;;;10.23;9.33;;;;;;;4.36;100.00;4174.88;5072470;28;20192;-59
2023/01/14 02:19:18;;;;;;;9.67;8.83;;;;;;;4.16;100.00;3539.34;5072188;28;20187;-59
2023/01/14 02:21:52;;;;;;;9.97;9.17;;;;;;;4.02;100.00;4487.50;5072514;28;20300;-60
2023/01/14 02:24:58;;;;;;;9.90;9.00;;;;;;;4.05;100.00;5121.22;5071966;28;20211;-59
2023/01/14 02:27:45;;;;;;;10.27;9.27;;;;;;;4.12;100.00;5755.59;5046509;28;20200;-60
2023/01/14 02:30:42;;;;;;;9.73;8.77;;;;;;;3.76;100.00;7650.34;5069073;28;20208;-59
2023/01/14 02:33:23;;;;;;;8.90;8.30;;;;;;;3.76;100.00;8917.72;5071894;28;20200;-59
2023/01/14 02:35:55;;;;;;;13.90;9.00;;;;;;;3.73;100.00;10184.72;5072088;28;20246;-59
2023/01/14 02:38:33;;;;;;;9.80;9.00;;;;;;;3.72;100.00;12087.06;5072098;28;20191;-61
2023/01/14 02:41:08;;;;;;;10.97;9.60;;;;;;;3.54;100.00;12716.94;5071974;28;20215;-60
2023/01/14 02:46:33;;;;;;;10.33;9.30;;;;;;;3.61;100.00;15891.81;5071772;28;20203;-59
2023/01/14 02:49:02;;;;;;;11.60;9.67;;;;;;;3.67;100.00;18097.09;5071649;28;20195;-60
2023/01/14 02:51:29;;;;;;;10.77;9.80;;;;;;;3.70;100.00;19684.69;5071461;28;20295;-61
2023/01/14 02:53:56;;;;;;;10.03;9.17;;;;;;;3.78;100.00;20527.13;5071474;28;20205;-58
2023/01/14 02:56:23;;;;;;;9.93;9.03;;;;;;;3.77;100.00;22912.59;5071464;28;20188;-60
2023/01/14 02:59:15;;;;;;;9.10;8.40;;;;;;;3.82;100.00;21530.13;5071393;28;20189;-59
2023/01/14 03:02:00;;;;;;;10.23;9.27;;;;;;;3.93;100.00;20466.03;5071335;28;20307;-60
2023/01/14 03:04:57;;;;;;;8.07;7.50;;;;;;;3.70;100.00;20981.31;5071332;28;20276;-60
2023/01/14 03:07:31;;;;;;;8.67;7.97;;;;;;;3.82;100.00;19236.97;5071351;28;20180;-60
2023/01/14 03:10:05;;;;;;;9.20;8.30;;;;;;;3.88;100.00;17347.16;5071612;28;20184;-59
2023/01/14 03:12:43;;;;;;;8.30;7.70;;;;;;;3.92;100.00;17068.00;5071248;28;20204;-58
2023/01/14 03:15:22;;;;;;;9.27;8.33;;;;;;;4.03;100.00;15368.81;5071187;28;20192;-59
2023/01/14 03:17:59;;;;;;;9.73;8.80;;;;;;;4.18;100.00;14003.34;5071733;28;20188;-59
2023/01/14 03:20:31;;;;;;;9.40;8.60;;;;;;;4.13;100.00;13049.53;5071406;28;20583;-59
2023/01/14 03:23:04;;;;;;;8.93;8.33;;;;;;;4.04;100.00;11143.16;5071561;28;20623;-59
2023/01/14 03:25:34;;;;;;;9.70;8.90;;;;;;;3.69;100.00;11452.09;5071166;28;20188;-59
2023/01/14 03:28:03;;;;;;;12.50;9.03;;;;;;;3.63;100.00;12084.84;5071093;28;20189;-59
2023/01/14 03:30:35;;;;;;;9.23;8.47;;;;;;;3.55;100.00;13034.22;5071324;28;20180;-59
2023/01/14 03:33:07;;;;;;;9.57;8.73;;;;;;;3.37;100.00;13663.81;5071465;28;20222;-59
2023/01/14 03:35:37;;;;;;;10.10;9.10;;;;;;;3.49;100.00;15570.69;5070898;28;20618;-58
2023/01/14 03:38:11;;;;;;;9.10;8.17;;;;;;;3.59;100.00;17796.53;5071023;28;20184;-61
2023/01/14 03:40:40;;;;;;;9.33;8.40;;;;;;;3.54;100.00;18544.28;5071397;28;20204;-58
2023/01/14 03:43:15;;;;;;;9.00;8.23;;;;;;;3.52;100.00;19536.47;5075178;28;20271;-60
2023/01/14 03:45:45;;;;;;;8.97;7.90;;;;;;;3.01;100.00;18734.16;5075061;28;20195;-59
2023/01/14 03:48:13;;;;;;;9.57;8.77;;;;;;;3.51;100.00;18895.66;5075196;28;20205;-59
2023/01/14 03:50:55;;;;;;;9.17;8.37;;;;;;;3.74;100.00;19328.38;5075328;28;20635;-60
2023/01/14 03:53:28;;;;;;;9.93;9.00;;;;;;;3.95;100.00;20061.78;5075139;28;20184;-60
2023/01/14 03:56:05;;;;;;;9.70;8.30;;;;;;;3.94;100.00;22434.94;5074860;28;20192;-60
2023/01/14 03:58:40;;;;;;;8.80;8.20;;;;;;;3.94;100.00;20958.50;5074768;28;20192;-61
2023/01/14 04:01:11;;;;;;;8.03;7.43;;;;;;;3.80;100.00;18603.16;5074984;28;20661;-59
2023/01/14 04:03:40;;;;;;;8.77;8.03;;;;;;;3.84;100.00;16618.59;5074966;28;20684;-59
2023/01/14 04:06:08;;;;;;;7.47;6.90;;;;;;;3.77;100.00;15261.59;5074904;28;20539;-60
2023/01/14 04:08:35;;;;;;;8.17;7.57;;;;;;;4.00;100.00;13680.97;5074581;28;20196;-59
2023/01/14 04:11:02;;;;;;;7.77;7.23;;;;;;;3.82;100.00;12089.44;5074614;28;20314;-59
2023/01/14 04:16:13;;;;;;;7.10;6.67;;;;;;;4.05;100.00;6704.91;5074617;28;20234;-58
2023/01/14 04:18:42;;;;;;;8.33;7.63;;;;;;;4.00;100.00;5437.13;5074392;28;20189;-59
2023/01/14 04:21:09;;;;;;;7.17;6.63;;;;;;;3.89;100.00;4169.44;5074257;28;20231;-59
2023/01/14 04:23:35;;;;;;;6.90;6.50;;;;;;;3.03;100.00;5740.00;5074259;28;20288;-60
2023/01/14 04:26:02;;;;;;;6.70;6.13;;;;;;;3.45;100.00;6695.44;5075004;28;20582;-59
2023/01/14 04:28:29;;;;;;;7.10;6.53;;;;;;;3.53;100.00;8279.84;5074396;28;20212;-58
2023/01/14 04:30:56;;;;;;;7.90;7.27;;;;;;;3.69;100.00;8916.34;5074127;28;20192;-60
2023/01/14 04:33:23;;;;;;;9.63;7.03;;;;;;;3.66;100.00;10500.41;5073939;28;20251;-59
2023/01/14 04:35:52;;;;;;;7.33;6.83;;;;;;;3.79;100.00;10186.13;5071929;28;20188;-60
2023/01/14 04:38:21;;;;;;;8.17;7.47;;;;;;;3.85;100.00;9236.44;5072899;28;20192;-61
2023/01/14 04:40:49;;;;;;;7.40;6.80;;;;;;;3.92;100.00;8920.84;5073075;28;20574;-60
2023/01/14 04:43:15;;;;;;;8.17;6.83;;;;;;;3.92;100.00;8603.91;5072870;28;20193;-58
2023/01/14 04:45:42;;;;;;;8.13;7.43;;;;;;;4.01;100.00;7654.81;5073052;28;20185;-58
2023/01/14 04:48:08;;;;;;;8.33;7.63;;;;;;;4.04;100.00;6387.97;5072804;28;20180;-59
2023/01/14 04:50:37;;;;;;;8.40;7.37;;;;;;;4.00;100.00;4803.91;5073189;28;20219;-60
2023/01/14 04:53:10;;;;;;;8.80;7.97;;;;;;;3.82;100.00;5751.28;5072461;28;20195;-59
2023/01/14 04:55:38;;;;;;;9.17;8.30;;;;;;;3.78;100.00;5434.13;5073205;28;20224;-61
2023/01/14 04:58:05;;;;;;;7.70;7.20;;;;;;;3.65;100.00;6698.53;5072889;28;20188;-60
2023/01/14 05:00:32;;;;;;;7.77;7.07;;;;;;;3.52;100.00;7646.22;5072887;28;20555;-59
2023/01/14 05:03:01;;;;;;;7.73;7.03;;;;;;;3.63;100.00;8598.38;5073013;28;20185;-60
2023/01/14 05:05:28;;;;;;;7.97;7.13;;;;;;;3.67;100.00;10183.66;5073125;28;20185;-58
2023/01/14 05:07:55;;;;;;;7.63;7.13;;;;;;;3.71;100.00;10184.28;5072584;28;20189;-59
2023/01/14 05:10:23;;;;;;;7.60;7.03;;;;;;;3.73;100.00;10184.72;5072442;28;20272;-61
2023/01/14 05:13:02;;;;;;;7.37;6.57;;;;;;;3.72;100.00;10184.63;5072655;28;20184;-59
2023/01/14 05:15:31;;;;;;;8.27;7.43;;;;;;;3.87;100.00;9870.72;5072307;28;20181;-61
2023/01/14 05:17:58;;;;;;;7.70;7.20;;;;;;;3.77;100.00;8917.91;5072425;28;20189;-60
2023/01/14 05:20:26;;;;;;;8.97;7.03;;;;;;;3.82;100.00;7968.28;5072196;28;20188;-59
2023/01/14 05:22:58;;;;;;;8.27;7.57;;;;;;;3.79;100.00;7650.97;5072358;28;20206;-59
2023/01/14 05:25:27;;;;;;;8.53;7.83;;;;;;;3.85;100.00;7018.47;5072062;28;20224;-59
2023/01/14 05:27:54;;;;;;;7.10;6.60;;;;;;;3.85;100.00;7335.22;5072098;28;20216;-60
2023/01/14 05:30:21;;;;;;;9.30;8.00;;;;;;;3.73;100.00;7333.19;5072356;28;20552;-59
2023/01/14 05:32:47;;;;;;;9.93;8.70;;;;;;;3.75;100.00;6700.13;5072052;28;20196;-62
2023/01/14 05:35:16;;;;;;;7.67;7.07;;;;;;;3.84;100.00;6068.13;5028934;28;1250103;-59
2023/01/14 05:37:43;;;;;;;7.77;7.07;;;;;;;4.01;100.00;5120.66;5073219;28;20181;-60
2023/01/14 05:40:11;;;;;;;12.13;7.67;;;;;;;3.90;100.00;5752.44;5072892;28;20200;-58
2023/01/14 05:45:41;;;;;;;8.83;7.83;;;;;;;3.93;100.00;4169.88;5072810;28;20184;-60
2023/01/14 05:48:09;;;;;;;9.40;8.40;;;;;;;4.06;100.00;3538.31;5072599;28;20544;-59
2023/01/14 05:50:37;;;;;;;8.40;7.77;;;;;;;3.83;100.00;3535.81;5072719;28;20196;-59
2023/01/14 05:53:04;;;;;;;8.70;7.93;;;;;;;3.90;100.00;3853.03;5072658;28;20184;-59
2023/01/14 05:55:31;;;;;;;8.80;8.03;;;;;;;3.83;100.00;4168.69;5072451;28;20196;-60
2023/01/14 05:58:00;;;;;;;9.13;8.33;;;;;;;4.00;100.00;3854.16;5072556;28;20185;-59
2023/01/14 06:08:44;;;;;;;13.80;8.60;;;;;;;3.50;100.00;9546.19;5072516;28;20204;-59
2023/01/14 06:11:11;;;;;;;10.43;8.30;;;;;;;3.57;100.00;11132.22;5072314;28;20196;-58
2023/01/14 06:13:39;;;;;;;11.97;8.40;;;;;;;3.64;100.00;12402.22;5070933;28;20194;-60
2023/01/14 06:16:07;;;;;;;9.43;8.63;;;;;;;3.71;100.00;13355.56;5072089;28;20709;-58
2023/01/14 06:18:41;;;;;;;9.00;8.17;;;;;;;3.75;100.00;13673.97;5072432;28;20181;-58
2023/01/14 06:21:10;;;;;;;12.77;8.50;;;;;;;3.47;100.00;15887.63;5072074;28;20211;-59
2023/01/14 06:23:37;;;;;;;8.53;7.73;;;;;;;3.53;100.00;13985.28;5072297;28;20200;-58
2023/01/14 06:26:04;;;;;;;13.10;8.47;;;;;;;3.52;100.00;13667.78;5072405;28;20208;-59
2023/01/14 06:28:31;;;;;;;9.33;8.43;;;;;;;3.68;100.00;13672.19;5071925;28;20194;-59
2023/01/14 06:30:59;;;;;;;8.53;7.73;;;;;;;3.57;100.00;16525.53;5071880;28;20176;-61
2023/01/14 06:33:26;;;;;;;9.00;7.17;;;;;;;3.64;100.00;15575.44;5071977;28;20260;-60
2023/01/14 06:35:55;;;;;;;8.73;7.90;;;;;;;3.75;100.00;14308.81;5072034;28;20195;-60
2023/01/14 06:38:22;;;;;;;8.93;8.13;;;;;;;3.62;100.00;13987.81;5072126;28;20185;-59
2023/01/14 06:40:49;;;;;;;8.57;7.77;;;;;;;3.67;100.00;12720.16;5071662;28;20189;-59
2023/01/14 06:43:15;;;;;;;12.93;8.53;;;;;;;3.74;100.00;12087.44;5071577;28;20209;-59
2023/01/14 06:45:42;;;;;;;8.97;8.17;;;;;;;3.46;100.00;12714.72;5072042;28;20643;-59
2023/01/14 06:48:10;;;;;;;13.27;8.57;;;;;;;3.74;100.00;11453.16;5071896;28;20635;-61
2023/01/14 06:50:37;;;;;;;9.60;7.67;;;;;;;3.82;100.00;10503.72;5071583;28;20184;-59
2023/01/14 06:53:04;;;;;;;9.03;7.70;;;;;;;3.86;100.00;9870.63;5071580;28;20185;-59
2023/01/14 06:55:31;;;;;;;7.60;7.10;;;;;;;4.13;100.00;8607.91;5071501;28;20184;-60
2023/01/14 06:57:58;;;;;;;7.90;7.30;;;;;;;4.11;100.00;9241.56;5071687;28;20185;-60
2023/01/14 07:00:25;;;;;;;7.60;7.00;;;;;;;4.09;100.00;5438.38;5071451;28;20185;-59
2023/01/14 07:02:52;;;;;;;8.67;7.10;;;;;;;4.38;100.00;692.81;5071762;28;20602;-59
2023/01/14 07:05:21;;;;;;;6.40;6.00;;;;;;;4.85;100.00;-1203.69;5071624;28;20195;-59
2023/01/14 07:07:48;;;;;;;7.77;6.53;;;;;;;4.94;100.00;696.22;5071645;28;20193;-59
2023/01/14 07:10:15;;;;;;;7.07;6.67;;;;;;;5.20;100.00;6088.25;5071589;28;20276;-60
2023/01/14 07:12:46;;;;;;;6.13;5.73;;;;;;;4.93;100.00;10528.31;5071222;28;20212;-59
2023/01/14 07:15:13;;;;;;;7.70;6.90;;;;;;;5.11;100.00;11167.63;5071117;28;20189;-58
2023/01/14 07:17:40;;;;;;;5.33;5.03;;;;;;;4.86;100.00;14976.03;5071119;28;20181;-58
2023/01/14 07:20:09;;;;;;;5.60;5.20;;;;;;;4.81;100.00;15292.72;5071085;28;20290;-59
2023/01/14 07:22:38;;;;;;;6.00;5.50;;;;;;;4.89;100.00;13705.13;5071300;28;20219;-59
2023/01/14 07:25:06;;;;;;;6.10;5.80;;;;;;;4.85;100.00;16248.25;5071082;28;20184;-60
2023/01/14 07:27:34;;;;;;;7.77;7.00;;;;;;;5.18;100.00;16258.41;5071187;28;20196;-61
2023/01/14 07:30:01;;;;;;;9.07;7.10;;;;;;;5.21;100.00;18806.97;5071378;28;20196;-60
2023/01/14 07:32:28;;;;;;;8.00;7.40;;;;;;;5.27;100.00;21040.31;5070828;28;20188;-60
2023/01/14 07:34:54;;;;;;;7.67;7.07;;;;;;;5.26;100.00;21677.44;5070856;28;20297;-59
2023/01/14 07:37:21;;;;;;;8.27;7.77;;;;;;;5.17;100.00;21354.97;5071006;28;20197;-59
2023/01/14 07:39:49;;;;;;;8.43;7.90;;;;;;;5.12;100.00;20396.78;5071327;28;20568;-58
2023/01/14 07:42:18;;;;;;;12.33;8.37;;;;;;;5.22;100.00;17851.91;5071182;28;20583;-59
2023/01/14 07:44:45;;;;;;;10.87;9.80;;;;;;;4.97;100.00;18480.28;5070851;28;20221;-59
2023/01/14 07:47:12;;;;;;;10.33;9.30;;;;;;;5.18;100.00;18168.84;5071126;28;20181;-60
2023/01/14 07:49:40;;;;;;;10.53;9.37;;;;;;;5.35;100.00;16582.19;5069654;28;20655;-58
2023/01/14 07:52:07;;;;;;;9.37;8.60;;;;;;;5.46;100.00;21047.84;5071220;28;20638;-59
2023/01/14 07:54:34;;;;;;;10.93;9.57;;;;;;;5.44;100.00;23918.53;5071244;28;20614;-59
2023/01/14 07:57:03;;;;;;;16.20;10.53;;;;;;;5.42;100.00;27750.00;5071200;28;20192;-60
2023/01/14 07:59:29;;;;;;;10.23;9.33;;;;;;;5.21;100.00;24227.19;5070696;28;20197;-59
2023/01/14 08:01:56;;;;;;;16.10;10.43;;;;;;;5.39;100.00;24554.69;5071030;28;20212;-60
2023/01/14 08:04:23;;;;;;;13.50;9.93;;;;;;;5.36;100.00;24234.16;5070783;28;20181;-60
2023/01/14 08:06:50;;;;;;;24.47;10.70;;;;;;;5.24;100.00;24228.53;5071032;28;20547;-58
2023/01/14 08:09:17;;;;;;;11.70;8.70;;;;;;;5.34;100.00;22318.78;5070624;28;20197;-59
2023/01/14 08:11:44;;;;;;;13.90;9.63;;;;;;;5.55;100.00;23923.19;5069471;28;20185;-58
2023/01/14 08:14:13;;;;;;;14.53;11.27;;;;;;;5.60;100.00;27119.66;5070913;28;20291;-58
2023/01/14 08:16:40;;;;;;;13.17;10.30;;;;;;;5.60;100.00;28717.66;5070557;28;20196;-59
2023/01/14 08:19:06;;;;;;;24.23;12.60;;;;;;;5.56;100.00;29355.31;5070529;28;20192;-60
2023/01/14 08:21:33;;;;;;;13.27;11.03;;;;;;;5.51;100.00;28073.91;5070436;28;20227;-59
2023/01/14 08:24:00;;;;;;;11.07;10.07;;;;;;;5.53;100.00;27755.31;5070470;28;20185;-64
2023/01/14 08:26:27;;;;;;;9.57;8.77;;;;;;;5.25;100.00;26782.91;5071225;28;20579;-64
2023/01/14 08:28:54;;;;;;;8.13;7.47;;;;;;;5.44;100.00;25834.22;5074516;28;20200;-66
2023/01/14 08:31:23;;;;;;;8.13;7.50;;;;;;;5.44;100.00;28070.31;5074489;28;20188;-63
2023/01/14 08:33:50;;;;;;;14.57;9.43;;;;;;;5.30;100.00;25508.28;5074460;28;20717;-63
2023/01/14 08:36:19;;;;;;;22.27;10.03;;;;;;;5.31;100.00;23912.75;5074278;28;20291;-64
2023/01/14 08:38:48;;;;;;;18.53;8.83;;;;;;;5.06;100.00;23901.69;5074506;28;20185;-64
2023/01/14 08:41:17;;;;;;;21.60;9.40;;;;;;;5.40;100.00;24555.16;5074795;28;20227;-64
2023/01/14 08:43:48;;;;;;;8.73;8.13;;;;;;;5.26;100.00;26464.06;5074200;28;20205;-63
2023/01/14 08:46:15;;;;;;;12.13;10.70;;;;;;;5.21;100.00;22313.16;5074549;28;20635;-64
2023/01/14 08:48:43;;;;;;;15.77;11.13;;;;;;;5.19;100.00;19762.09;5074123;28;20192;-63
2023/01/14 08:51:12;;;;;;;14.93;10.63;;;;;;;5.10;100.00;16256.00;5074483;28;20208;-64
2023/01/14 08:53:40;;;;;;;11.63;10.03;;;;;;;5.02;100.00;14662.84;5072993;28;20207;-63
2023/01/14 08:56:08;;;;;;;11.73;10.30;;;;;;;5.26;100.00;14351.34;5074205;28;20195;-64
2023/01/14 08:58:36;;;;;;;14.77;11.17;;;;;;;5.18;100.00;15621.81;5074203;28;20181;-63
2023/01/14 09:01:05;;;;;;;12.43;11.23;;;;;;;5.06;100.00;17528.19;5073797;28;20234;-63
2023/01/14 09:03:32;;;;;;;12.27;11.17;;;;;;;5.16;100.00;16894.59;5073916;28;20205;-64
2023/01/14 09:06:03;;;;;;;12.33;10.83;;;;;;;5.01;100.00;16571.56;5072995;28;20682;-63
2023/01/14 09:19:30;;;;;;;9.93;9.03;;;;;;;5.12;100.00;17529.88;5073739;28;20559;-63
2023/01/14 09:21:59;;;;;;;9.37;8.57;;;;;;;5.29;100.00;17217.31;5073264;28;20604;-63
2023/01/14 09:24:26;;;;;;;19.27;10.70;;;;;;;5.38;100.00;20725.63;5073323;28;20188;-63
2023/01/14 09:26:53;;;;;;;17.70;10.03;;;;;;;5.56;100.00;22008.69;5074007;28;20188;-64
2023/01/14 09:29:19;;;;;;;12.10;9.87;;;;;;;5.68;100.00;25206.47;5073452;28;20263;-64
2023/01/14 09:31:46;;;;;;;10.33;9.57;;;;;;;5.69;100.00;30001.97;5073925;28;20185;-65
2023/01/14 09:34:13;;;;;;;10.83;9.63;;;;;;;5.90;100.00;33855.78;5073352;28;20235;-63
2023/01/14 09:36:40;;;;;;;11.50;10.03;;;;;;;6.05;100.00;37070.38;5073458;28;20272;-64
2023/01/14 09:39:08;;;;;;;18.17;9.83;;;;;;;5.91;100.00;42839.19;5072038;28;20193;-63
2023/01/14 09:41:37;;;;;;;18.73;9.33;;;;;;;5.76;100.00;38976.09;5073496;28;20715;-64
2023/01/14 09:44:07;;;;;;;11.27;9.10;;;;;;;5.77;100.00;38334.91;5073111;28;20236;-65
2023/01/14 09:46:34;;;;;;;26.17;10.83;;;;;;;5.65;100.00;33200.13;5072981;28;20189;-63
2023/01/14 09:49:04;;;;;;;9.80;8.97;;;;;;;5.59;100.00;33836.63;5073462;28;20558;-64
2023/01/14 09:51:48;;;;;;;10.07;8.10;;;;;;;5.76;100.00;37051.84;5073230;28;20634;-63
2023/01/14 09:54:27;;;;;;;10.97;9.90;;;;;;;5.61;100.00;35439.66;5073453;28;20185;-63
2023/01/14 09:56:58;;;;;;;10.93;10.00;;;;;;;5.70;100.00;33523.06;5073060;28;20599;-63
2023/01/14 09:59:35;;;;;;;9.93;9.03;;;;;;;5.67;100.00;30320.81;5072875;28;20188;-63
2023/01/14 10:02:12;;;;;;;11.73;10.13;;;;;;;5.63;100.00;29359.03;5073001;28;20584;-63
2023/01/14 10:04:54;;;;;;;9.53;8.83;;;;;;;5.65;100.00;27122.13;5072879;28;20204;-63
2023/01/14 10:07:23;;;;;;;11.33;9.20;;;;;;;5.67;100.00;27123.13;5072926;28;20552;-62
2023/01/14 10:09:54;;;;;;;10.50;9.47;;;;;;;5.74;100.00;27446.00;5072764;28;20188;-63
2023/01/14 10:12:27;;;;;;;11.87;10.00;;;;;;;5.74;100.00;26167.78;5072492;28;20185;-64
2023/01/14 10:15:02;;;;;;;16.83;10.37;;;;;;;5.88;100.00;25535.31;5072839;28;20529;-63
2023/01/14 10:17:34;;;;;;;11.63;10.43;;;;;;;5.96;100.00;27137.53;5072420;28;20189;-63
2023/01/14 10:20:08;;;;;;;11.33;10.17;;;;;;;5.95;100.00;24579.91;5072332;28;20189;-63
2023/01/14 10:22:39;;;;;;;11.27;10.17;;;;;;;5.89;100.00;28412.97;5072310;28;20756;-63
2023/01/14 10:25:16;;;;;;;17.63;10.30;;;;;;;6.05;100.00;26182.44;5072373;28;20265;-65
2023/01/14 10:27:47;;;;;;;12.13;10.83;;;;;;;6.03;100.00;26820.72;5072580;28;20636;-64
2023/01/14 10:30:18;;;;;;;11.60;10.47;;;;;;;5.99;100.00;30338.13;5070916;28;20184;-63
2023/01/14 10:32:48;;;;;;;10.50;9.67;;;;;;;5.87;100.00;29691.81;5072400;28;20299;-63
2023/01/14 10:35:18;;;;;;;10.60;9.50;;;;;;;5.99;100.00;29378.00;5071821;28;20232;-63
2023/01/14 10:37:45;;;;;;;10.77;9.33;;;;;;;6.12;100.00;31626.13;5072384;28;20185;-63
2023/01/14 10:40:22;;;;;;;10.37;9.53;;;;;;;6.01;100.00;33861.84;5072279;28;20580;-63
2023/01/14 10:42:49;;;;;;;16.90;9.17;;;;;;;6.15;100.00;30987.03;5072041;28;20204;-64
2023/01/14 10:45:16;;;;;;;10.03;9.13;;;;;;;6.26;100.00;33877.03;5071905;28;20185;-63
2023/01/14 10:47:45;;;;;;;16.10;10.50;;;;;;;6.22;100.00;37081.94;5072359;28;20288;-64
2023/01/14 10:50:19;;;;;;;15.07;10.67;;;;;;;6.07;100.00;38997.22;5071406;28;20242;-62
2023/01/14 10:52:46;;;;;;;20.43;10.90;;;;;;;5.85;100.00;37698.84;5072200;28;20564;-63
2023/01/14 10:55:17;;;;;;;11.97;10.83;;;;;;;5.92;100.00;28734.41;5072016;28;20188;-63
2023/01/14 10:57:48;;;;;;;17.37;10.43;;;;;;;6.13;100.00;27785.50;5071707;28;20187;-64
2023/01/14 11:00:32;;;;;;;13.70;12.23;;;;;;;5.98;100.00;30657.66;5071821;28;20192;-63
2023/01/14 11:03:00;;;;;;;13.93;11.37;;;;;;;6.05;100.00;28101.06;5071801;28;20695;-63
2023/01/14 11:05:29;;;;;;;19.27;13.07;;;;;;;6.06;100.00;29061.72;5072002;28;20181;-63
2023/01/14 11:08:00;;;;;;;20.20;14.67;;;;;;;6.23;100.00;30671.25;5071932;28;20636;-64
2023/01/14 11:10:30;;;;;;;25.47;14.47;;;;;;;6.16;100.00;34832.63;5071698;28;20196;-63
2023/01/14 11:13:15;;;;;;;31.50;15.17;;;;;;;6.08;100.00;36751.91;5071663;28;20176;-64
2023/01/14 11:15:45;;;;;;;17.53;13.47;;;;;;;6.23;100.00;36440.59;5071681;28;20194;-63
2023/01/14 11:18:25;;;;;;;21.83;13.27;;;;;;;6.30;100.00;39334.25;5071830;28;20207;-64
2023/01/14 11:20:55;;;;;;;20.97;13.20;;;;;;;5.99;100.00;35142.88;5071620;28;20219;-64
2023/01/14 11:23:28;;;;;;;23.53;13.53;;;;;;;6.20;100.00;32912.22;5071464;28;20215;-64
2023/01/14 11:25:57;;;;;;;11.97;10.77;;;;;;;6.38;100.00;32602.06;5071569;28;20181;-64
2023/01/14 11:28:24;;;;;;;8.10;7.60;;;;;;;6.47;100.00;31325.38;5071783;28;20193;-64
2023/01/14 11:30:54;;;;;;;8.03;7.30;;;;;;;6.40;100.00;29079.69;5071988;28;20655;-63
2023/01/14 11:33:24;;;;;;;7.03;6.63;;;;;;;6.38;100.00;29719.03;5071442;28;20246;-63
2023/01/14 11:35:53;;;;;;;6.77;6.17;;;;;;;6.27;100.00;26192.78;5071747;28;20195;-65
2023/01/14 11:38:22;;;;;;;6.90;6.50;;;;;;;6.22;100.00;22993.84;5071870;28;20607;-64
2023/01/14 11:43:53;;;;;;;6.07;5.77;;;;;;;5.84;100.00;14367.78;5071948;28;20305;-63
2023/01/14 11:46:20;;;;;;;5.40;5.00;;;;;;;5.85;100.00;13731.31;5072176;28;20242;-63
2023/01/14 11:49:00;;;;;;;4.73;4.43;;;;;;;5.86;100.00;14050.03;5072638;28;20618;-64
2023/01/14 11:51:29;;;;;;;4.80;4.40;;;;;;;5.60;100.00;13087.75;5073270;28;20196;-63
2023/01/14 11:53:56;;;;;;;5.07;4.87;;;;;;;5.52;100.00;11813.25;5073172;28;20181;-64
2023/01/14 11:56:31;;;;;;;4.97;4.63;;;;;;;5.62;100.00;9907.56;5074588;28;20180;-65
2023/01/14 11:59:01;;;;;;;5.53;5.03;;;;;;;5.47;100.00;9904.34;5078970;28;20192;-64
2023/01/14 12:01:36;;;;;;;5.60;4.87;;;;;;;5.44;100.00;9268.19;5078709;28;20652;-64
2023/01/14 12:04:05;;;;;;;5.43;5.13;;;;;;;5.54;100.00;8316.78;5083072;28;20210;-64
2023/01/14 12:06:46;;;;;;;4.93;4.73;;;;;;;5.73;100.00;7366.94;5082027;28;20246;-64
2023/01/14 12:09:22;;;;;;;6.57;4.80;;;;;;;5.83;100.00;8640.09;5079561;28;20196;-67
2023/01/14 12:11:57;;;;;;;5.23;4.97;;;;;;;5.72;100.00;10227.69;5078228;28;20250;-64
2023/01/14 12:17:24;;;;;;;5.27;4.97;;;;;;;5.56;100.00;7046.31;5076297;28;20275;-64